Estación Meteorológica Peña el Pijo (Robertgarden) [ 06/24/18 10:42:50 CEST ]

Fecha Hora Presion(HPa) Temp (°C) Humedad % Rocio (°C) Viento ( m/s) Direccion Lluvia 1Hora(mm) Lluvia 24H(mm) LLuvia Total(mm)
2018-Apr-12 01:01:44 994.800 5.8 64 -0.5       1.55 197.35
2018-Apr-12 02:01:44 994.900 5.6 64 -0.7       1.55 197.35
2018-Apr-12 03:01:44 994.700 5.4 66 -0.5       1.55 197.35
2018-Apr-12 04:01:41 994.800 5.3 68 -0.1 1.0 NW   1.55 197.35
2018-Apr-12 05:01:42 995.100 5.1 68 -0.3       1.03 197.35
2018-Apr-12 06:01:43 994.900 5.1 69 -0.1       1.03 197.35
2018-Apr-12 07:01:35 995.100 5.1 68 -0.3       1.03 197.35
2018-Apr-12 08:01:43 995.000 5.1 69 -0.1 2.5 WNW   1.03 197.35
2018-Apr-12 09:01:43 995.600 5.2 69 -0.0       0.51 197.35
2018-Apr-12 10:01:48 995.700 7.6 66 1.6 1.5 WNW     197.35
2018-Apr-12 11:02:00 996.400 8.6 62 1.7 1.7 WNW     197.35
2018-Apr-12 12:01:53 996.800 9.2 60 1.9 3.4 WNW     197.35
2018-Apr-12 13:01:44 996.000 10.3 57 2.1 1.4 WNW     197.35
2018-Apr-12 14:01:54 995.500 10.8 57 2.6         197.35
2018-Apr-12 13:01:49 995.300 10.9 54 1.9 2.9 NW     197.35
2018-Apr-12 14:01:54 994.600 9.8 57 1.7 1.1 NW     197.35
2018-Apr-12 15:01:44 993.700 11.6 52 2.0 1.1 WNW     197.35
2018-Apr-12 16:01:56 993.800 10.8 55 2.1         197.35
2018-Apr-12 17:01:51 993.200 9.3 62 2.4         197.35
2018-Apr-12 18:02:04 992.600 9.3 64 2.8         197.35
2018-Apr-12 19:01:57 992.600 8.4 67 2.6         197.35
2018-Apr-12 20:01:49 994.400 5.9 72 1.3         197.35
2018-Apr-12 21:01:46 992.400 4.8 77 1.1     0.51 0.51 197.87
2018-Apr-12 22:01:46 992.900 5.5 75 1.4       0.51 197.87
2018-Apr-12 23:01:54 993.100 4.9 77 1.2       0.51 197.87

Temperatura Máxima:11°    Temperatura Mínima:
Presión Máxima:996.800 Hpa    Presión Mínima:992.400 Hpa


Volver